Time;durP1;ratioP1;P1;durP2;ratioP2;P2;SDS_P1;SDS_P2;PMS_P1;PMS_P2;Temp;Humidity;BMP_temperature;BMP_pressure;BME280_temperature;BME280_humidity;BME280_pressure;Samples;Min_cycle;Max_cycle;Signal;HPM_P1;HPM_P2
2020/12/13 00:00:47;;;;;;;37.97;22.23;;;6.80;99.90;;;;;;5072407;28;20103;-54
2020/12/13 00:03:13;;;;;;;36.95;22.52;;;6.80;99.90;;;;;;5072795;28;20051;-50
2020/12/13 00:05:38;;;;;;;39.00;21.50;;;6.80;99.90;;;;;;5072267;28;20116;-53
2020/12/13 00:08:04;;;;;;;38.47;22.00;;;6.80;99.90;;;;;;5054290;28;20038;-54
2020/12/13 00:10:29;;;;;;;43.58;23.13;;;6.80;99.90;;;;;;5054567;28;20142;-54
2020/12/13 00:12:55;;;;;;;35.75;21.98;;;6.90;99.90;;;;;;5071975;28;20082;-49
2020/12/13 00:15:21;;;;;;;44.92;22.92;;;6.90;99.90;;;;;;5072015;28;20438;-54
2020/12/13 00:17:47;;;;;;;52.17;25.92;;;6.90;99.90;;;;;;5071879;28;20512;-50
2020/12/13 00:20:13;;;;;;;50.17;25.25;;;6.90;99.90;;;;;;5072000;28;20028;-52
2020/12/13 00:22:39;;;;;;;55.47;25.90;;;7.00;99.90;;;;;;5072364;28;20028;-56
2020/12/13 00:25:05;;;;;;;51.90;25.38;;;7.00;99.90;;;;;;5054738;28;20023;-50
2020/12/13 00:27:30;;;;;;;40.13;22.63;;;6.90;99.90;;;;;;5071913;28;20028;-52
2020/12/13 00:29:56;;;;;;;46.17;24.50;;;6.90;99.90;;;;;;5054822;28;20032;-49
2020/12/13 00:32:27;;;;;;;40.13;22.23;;;6.90;99.90;;;;;;5075139;28;20024;-54
2020/12/13 00:34:53;;;;;;;46.17;24.48;;;6.90;99.90;;;;;;5074144;28;20020;-58
2020/12/13 00:37:18;;;;;;;51.30;24.83;;;6.80;99.90;;;;;;5057382;28;20517;-53
2020/12/13 00:39:44;;;;;;;42.00;22.15;;;6.80;99.90;;;;;;5075040;28;20099;-56
2020/12/13 00:42:09;;;;;;;44.70;23.98;;;6.80;99.90;;;;;;5074416;28;20039;-51
2020/12/13 00:44:35;;;;;;;46.35;25.30;;;6.80;99.90;;;;;;5056376;28;20021;-52
2020/12/13 00:47:00;;;;;;;48.88;26.40;;;6.80;99.90;;;;;;5074406;28;20016;-50
2020/12/13 00:49:26;;;;;;;51.17;25.48;;;6.90;99.90;;;;;;5057143;28;20484;-51
2020/12/13 00:51:51;;;;;;;57.60;26.33;;;6.90;99.90;;;;;;5075116;28;20459;-55
2020/12/13 00:54:17;;;;;;;67.53;28.58;;;6.90;99.90;;;;;;5074934;28;20017;-51
2020/12/13 00:56:45;;;;;;;65.28;31.00;;;6.90;99.90;;;;;;5057198;28;20508;-51
2020/12/13 00:59:11;;;;;;;69.95;29.65;;;6.90;99.90;;;;;;5075789;28;20016;-52
2020/12/13 01:01:37;;;;;;;58.38;29.52;;;6.90;99.90;;;;;;5074801;28;20108;-52
2020/12/13 01:04:02;;;;;;;53.60;29.05;;;6.90;99.90;;;;;;5056216;28;20025;-51
2020/12/13 01:06:28;;;;;;;51.33;26.55;;;6.90;99.90;;;;;;5074635;28;20115;-57
2020/12/13 01:08:54;;;;;;;60.50;29.83;;;6.80;99.90;;;;;;5074866;28;20035;-52
2020/12/13 01:11:24;;;;;;;60.10;30.25;;;6.80;99.90;;;;;;5074722;28;20031;-54
2020/12/13 01:13:51;;;;;;;62.13;28.63;;;6.80;99.90;;;;;;5074100;28;20024;-57
2020/12/13 01:16:18;;;;;;;73.97;29.80;;;6.90;99.90;;;;;;5074451;28;20060;-52
2020/12/13 01:18:44;;;;;;;97.53;30.73;;;7.00;99.90;;;;;;5038094;28;20020;-55
2020/12/13 01:21:35;;;;;;;77.25;29.52;;;7.10;99.90;;;;;;5066936;28;20036;-50
2020/12/13 01:24:01;;;;;;;62.65;28.70;;;7.00;99.90;;;;;;5050330;28;20140;-50
2020/12/13 01:26:27;;;;;;;65.43;32.33;;;7.00;99.90;;;;;;5054624;28;20063;-51
2020/12/13 01:28:53;;;;;;;71.40;27.23;;;6.90;99.90;;;;;;5054295;28;20028;-49
2020/12/13 01:31:21;;;;;;;59.10;28.42;;;6.90;99.90;;;;;;5053744;28;20024;-53
2020/12/13 01:33:48;;;;;;;51.75;25.95;;;7.00;99.90;;;;;;5053963;28;20078;-52
2020/12/13 01:36:15;;;;;;;61.95;27.60;;;7.10;99.90;;;;;;5073538;28;20049;-52
2020/12/13 01:38:42;;;;;;;67.40;28.17;;;7.10;99.90;;;;;;5054431;28;20140;-52
2020/12/13 01:41:08;;;;;;;54.90;28.33;;;7.10;99.90;;;;;;5054122;28;20048;-55
2020/12/13 01:43:35;;;;;;;62.25;28.00;;;7.10;99.90;;;;;;5053977;28;20066;-53
2020/12/13 01:46:00;;;;;;;103.78;30.20;;;7.10;99.90;;;;;;5037070;28;20056;-54
2020/12/13 01:48:27;;;;;;;100.80;29.77;;;7.10;99.90;;;;;;5071972;28;20033;-54
2020/12/13 01:51:10;;;;;;;153.07;29.30;;;7.00;99.90;;;;;;5071326;28;20020;-56
2020/12/13 01:53:38;;;;;;;61.65;28.90;;;7.10;99.90;;;;;;5053312;28;20021;-56
2020/12/13 01:56:05;;;;;;;63.22;27.40;;;7.10;99.90;;;;;;5053271;28;20028;-54
2020/12/13 01:58:38;;;;;;;64.80;30.38;;;7.00;99.90;;;;;;5037844;28;20021;-52
2020/12/13 02:01:07;;;;;;;71.22;28.90;;;6.90;99.90;;;;;;5053663;28;20028;-52
2020/12/13 02:03:59;;;;;;;96.00;29.20;;;6.90;99.90;;;;;;5054043;28;20060;-52
2020/12/13 02:06:29;;;;;;;103.60;28.25;;;6.80;99.90;;;;;;5053353;28;20131;-50
2020/12/13 02:08:55;;;;;;;106.47;25.33;;;6.80;99.90;;;;;;5053734;28;20055;-51
2020/12/13 02:11:21;;;;;;;75.63;27.90;;;6.80;99.90;;;;;;5053911;28;20021;-51
2020/12/13 02:13:50;;;;;;;98.80;29.20;;;6.80;99.90;;;;;;5053988;28;20031;-53
2020/12/13 02:16:17;;;;;;;147.15;31.77;;;6.90;99.90;;;;;;5053676;28;20465;-51
2020/12/13 02:18:43;;;;;;;84.43;26.95;;;6.90;99.90;;;;;;5053872;28;20021;-49
2020/12/13 02:21:10;;;;;;;64.03;26.25;;;6.90;99.90;;;;;;5054295;28;20021;-54
2020/12/13 02:23:38;;;;;;;56.85;29.33;;;6.80;99.90;;;;;;5055894;28;20139;-54
2020/12/13 02:26:05;;;;;;;46.03;26.60;;;6.80;99.90;;;;;;5057719;28;20044;-51
2020/12/13 02:28:31;;;;;;;58.03;26.23;;;6.80;99.90;;;;;;5058398;28;20017;-53
2020/12/13 02:30:56;;;;;;;66.03;26.48;;;6.80;99.90;;;;;;5059810;28;20047;-50
2020/12/13 02:33:22;;;;;;;51.28;27.23;;;7.00;99.90;;;;;;5058114;28;20028;-50
2020/12/13 02:35:47;;;;;;;56.67;27.38;;;6.90;99.90;;;;;;5057783;28;20025;-51
2020/12/13 02:38:13;;;;;;;42.10;23.98;;;6.90;99.90;;;;;;5057686;28;20484;-53
2020/12/13 02:40:38;;;;;;;45.83;26.48;;;6.80;99.90;;;;;;5057757;28;20078;-53
2020/12/13 02:43:04;;;;;;;42.80;25.17;;;6.90;99.90;;;;;;5058271;28;20084;-53
2020/12/13 02:45:30;;;;;;;44.30;24.27;;;6.80;99.90;;;;;;5075183;28;20039;-54
2020/12/13 02:47:55;;;;;;;42.78;23.92;;;6.80;99.90;;;;;;5057145;28;20051;-52
2020/12/13 02:50:21;;;;;;;43.33;25.17;;;6.80;99.90;;;;;;5058375;28;20044;-50
2020/12/13 02:52:46;;;;;;;38.90;23.33;;;6.80;99.90;;;;;;5058073;28;20478;-53
2020/12/13 02:55:12;;;;;;;41.08;25.33;;;6.90;99.90;;;;;;5057922;28;20028;-51
2020/12/13 02:57:40;;;;;;;44.90;25.05;;;6.80;99.90;;;;;;5057465;28;20019;-53
2020/12/13 03:00:06;;;;;;;41.25;25.00;;;6.80;99.90;;;;;;5059133;28;20373;-51
2020/12/13 03:02:32;;;;;;;39.00;24.25;;;6.80;99.90;;;;;;5058586;28;20025;-50
2020/12/13 03:04:57;;;;;;;41.30;25.65;;;6.80;99.90;;;;;;5042481;28;20032;-52
2020/12/13 03:07:23;;;;;;;40.08;23.15;;;6.90;99.90;;;;;;5059086;28;20024;-55
2020/12/13 03:09:48;;;;;;;41.78;25.70;;;6.90;99.90;;;;;;5058614;28;20063;-51
2020/12/13 03:12:14;;;;;;;44.97;26.55;;;6.90;99.90;;;;;;5077495;28;20535;-52
2020/12/13 03:14:40;;;;;;;40.88;25.25;;;6.90;99.90;;;;;;5061157;28;20044;-54
2020/12/13 03:17:07;;;;;;;38.05;24.42;;;6.90;99.90;;;;;;5061416;28;20013;-52
2020/12/13 03:19:33;;;;;;;41.80;25.73;;;6.90;99.90;;;;;;5062331;28;20074;-54
2020/12/13 03:21:58;;;;;;;40.13;25.92;;;7.00;99.90;;;;;;5062325;28;20521;-53
2020/12/13 03:24:24;;;;;;;38.33;24.88;;;7.00;99.90;;;;;;5058746;28;20119;-51
2020/12/13 03:26:49;;;;;;;32.95;22.13;;;7.10;99.90;;;;;;5057425;28;20025;-54
2020/12/13 03:29:15;;;;;;;33.75;22.60;;;7.10;99.90;;;;;;5058120;28;20029;-51
2020/12/13 03:31:41;;;;;;;35.97;23.10;;;7.10;99.90;;;;;;5057374;28;20441;-53
2020/12/13 03:34:06;;;;;;;33.00;22.90;;;7.10;99.90;;;;;;5058498;28;20021;-51
2020/12/13 03:36:32;;;;;;;34.28;22.30;;;7.10;99.90;;;;;;5057313;28;20030;-51
2020/12/13 03:38:57;;;;;;;35.90;22.90;;;7.10;99.90;;;;;;5058658;28;20020;-50
2020/12/13 03:41:23;;;;;;;39.50;24.52;;;7.20;99.90;;;;;;5060198;28;20029;-52
2020/12/13 03:43:48;;;;;;;36.92;24.27;;;7.20;99.90;;;;;;5060151;28;20063;-49
2020/12/13 03:46:14;;;;;;;39.05;24.65;;;7.40;99.90;;;;;;5058302;28;20028;-53
2020/12/13 03:48:39;;;;;;;39.15;25.30;;;7.40;99.90;;;;;;5057702;28;20024;-49
2020/12/13 03:51:05;;;;;;;41.05;25.70;;;7.30;99.90;;;;;;5057530;28;20174;-49
2020/12/13 03:53:31;;;;;;;41.03;24.77;;;7.20;99.90;;;;;;5057318;28;20028;-52
2020/12/13 03:55:56;;;;;;;42.00;25.15;;;7.40;99.90;;;;;;5056470;28;20477;-55
2020/12/13 03:58:22;;;;;;;39.78;25.95;;;7.50;99.90;;;;;;5057084;28;20025;-50
2020/12/13 04:00:47;;;;;;;39.47;26.27;;;7.50;99.90;;;;;;5056954;28;20036;-53
2020/12/13 04:03:13;;;;;;;41.78;24.90;;;7.50;99.90;;;;;;5056993;28;20068;-50
2020/12/13 04:05:38;;;;;;;41.97;25.52;;;7.40;99.90;;;;;;5056882;28;20064;-53
2020/12/13 04:08:04;;;;;;;42.28;26.13;;;7.40;99.90;;;;;;5057202;28;20025;-53
2020/12/13 04:10:30;;;;;;;41.47;26.50;;;7.40;99.90;;;;;;5057282;28;20417;-50
2020/12/13 04:12:56;;;;;;;42.15;26.02;;;7.50;99.90;;;;;;5056536;28;20107;-52
2020/12/13 04:15:22;;;;;;;44.25;26.17;;;7.50;99.90;;;;;;5056461;28;20032;-52
2020/12/13 04:17:48;;;;;;;49.65;26.58;;;7.50;99.90;;;;;;5056601;28;20070;-53
2020/12/13 04:20:13;;;;;;;44.35;27.13;;;7.40;99.90;;;;;;5056064;28;20074;-49
2020/12/13 04:22:39;;;;;;;49.80;27.58;;;7.50;99.90;;;;;;5056862;28;20029;-55
2020/12/13 04:25:06;;;;;;;48.03;28.27;;;7.40;99.90;;;;;;5055918;28;20028;-55
2020/12/13 04:27:32;;;;;;;74.25;28.33;;;7.40;99.90;;;;;;5039787;28;20017;-51
2020/12/13 04:29:57;;;;;;;46.83;27.52;;;7.30;99.90;;;;;;5056527;28;20029;-51
2020/12/13 04:32:23;;;;;;;53.17;27.65;;;7.20;99.90;;;;;;5056771;28;20028;-56
2020/12/13 04:34:50;;;;;;;44.05;26.50;;;7.30;99.90;;;;;;5056274;28;20024;-52
2020/12/13 04:37:16;;;;;;;53.80;28.83;;;7.20;99.90;;;;;;5056227;28;20024;-52
2020/12/13 04:39:42;;;;;;;46.92;27.38;;;7.20;99.90;;;;;;5057423;28;20432;-51
2020/12/13 04:42:08;;;;;;;51.97;28.30;;;7.20;99.90;;;;;;5056325;28;20024;-52
2020/12/13 04:44:35;;;;;;;44.47;27.25;;;7.20;99.90;;;;;;5056799;28;20024;-53
2020/12/13 04:47:06;;;;;;;50.55;27.50;;;7.20;99.90;;;;;;5054641;28;20033;-50
2020/12/13 04:49:34;;;;;;;85.50;26.40;;;7.20;99.90;;;;;;5056884;28;20025;-54
2020/12/13 04:52:00;;;;;;;71.53;27.70;;;7.20;99.90;;;;;;5039772;28;20029;-51
2020/12/13 04:54:28;;;;;;;50.53;26.23;;;7.20;99.90;;;;;;5038485;28;20473;-52
2020/12/13 04:56:57;;;;;;;46.00;26.40;;;7.20;99.90;;;;;;5056316;28;20081;-50
2020/12/13 04:59:23;;;;;;;57.05;28.02;;;7.20;99.90;;;;;;5056865;28;20024;-55
2020/12/13 05:01:48;;;;;;;44.97;25.48;;;7.20;99.90;;;;;;5056474;28;20033;-49
2020/12/13 05:04:15;;;;;;;78.80;27.55;;;7.10;99.90;;;;;;5056205;28;20043;-50
2020/12/13 05:06:45;;;;;;;58.28;26.33;;;7.00;99.90;;;;;;5055731;28;20026;-53
2020/12/13 05:09:13;;;;;;;74.03;26.75;;;7.10;99.90;;;;;;5055997;28;20055;-54
2020/12/13 05:11:40;;;;;;;41.25;23.85;;;7.10;99.90;;;;;;5055353;28;20032;-51
2020/12/13 05:14:06;;;;;;;63.63;25.95;;;7.10;99.90;;;;;;5055740;28;20017;-56
2020/12/13 05:16:31;;;;;;;50.03;27.85;;;7.10;99.90;;;;;;5055249;28;20021;-50
2020/12/13 05:18:57;;;;;;;41.42;26.40;;;7.10;99.90;;;;;;5056138;28;20031;-52
2020/12/13 05:21:24;;;;;;;39.75;24.85;;;7.20;99.90;;;;;;5055618;28;20020;-53
2020/12/13 05:23:50;;;;;;;49.75;25.20;;;7.10;99.90;;;;;;5056281;28;20074;-54
2020/12/13 05:26:16;;;;;;;38.92;25.60;;;7.00;99.90;;;;;;5055988;28;20060;-53
2020/12/13 05:28:46;;;;;;;40.53;25.95;;;7.00;99.90;;;;;;5055566;28;20520;-49
2020/12/13 05:31:19;;;;;;;44.92;27.60;;;7.10;99.90;;;;;;5055716;28;20146;-52
2020/12/13 05:33:57;;;;;;;46.70;25.95;;;7.00;99.90;;;;;;5055500;28;20016;-50
2020/12/13 05:36:25;;;;;;;47.42;26.23;;;7.00;99.90;;;;;;5054761;28;20030;-51
2020/12/13 05:38:55;;;;;;;55.80;26.55;;;7.00;99.90;;;;;;5073672;28;20020;-53
2020/12/13 05:41:21;;;;;;;53.03;27.05;;;7.00;99.90;;;;;;5054260;28;20070;-52
2020/12/13 05:43:51;;;;;;;41.53;26.42;;;6.90;99.90;;;;;;5055188;28;20477;-51
2020/12/13 05:51:36;;;;;;;51.80;28.25;;;7.00;99.90;;;;;;5073209;28;20029;-53
2020/12/13 05:54:03;;;;;;;37.35;25.50;;;7.10;99.90;;;;;;5055644;28;20024;-53
2020/12/13 05:56:29;;;;;;;46.15;26.88;;;7.00;99.90;;;;;;5055450;28;20363;-54
2020/12/13 05:58:56;;;;;;;43.90;27.58;;;7.00;99.90;;;;;;5057970;28;20031;-52
2020/12/13 06:01:24;;;;;;;52.33;29.25;;;7.10;99.90;;;;;;5058932;28;20032;-50
2020/12/13 06:03:53;;;;;;;43.72;26.98;;;7.10;99.90;;;;;;5058536;28;20048;-55
2020/12/13 06:06:25;;;;;;;39.78;25.77;;;7.20;99.90;;;;;;5057951;28;20033;-54
2020/12/13 06:09:13;;;;;;;41.88;25.17;;;7.20;99.90;;;;;;5058336;28;20020;-53
2020/12/13 06:11:49;;;;;;;42.05;25.85;;;7.20;99.90;;;;;;5057863;28;20025;-54
2020/12/13 06:14:16;;;;;;;39.70;25.15;;;7.20;99.90;;;;;;5057377;28;20020;-52
2020/12/13 06:16:42;;;;;;;39.80;26.40;;;7.20;99.90;;;;;;5059346;28;20029;-55
2020/12/13 06:19:09;;;;;;;38.80;25.80;;;7.20;99.90;;;;;;5041952;28;20108;-55
2020/12/13 06:21:37;;;;;;;38.45;25.27;;;7.20;99.90;;;;;;5058311;28;20024;-56
2020/12/13 06:24:03;;;;;;;35.90;24.48;;;7.20;99.90;;;;;;5058151;28;20024;-56
2020/12/13 06:26:29;;;;;;;38.03;24.88;;;7.30;99.90;;;;;;5041718;28;20024;-54
2020/12/13 06:28:57;;;;;;;35.08;24.52;;;7.20;99.90;;;;;;5076054;28;20029;-54
2020/12/13 06:31:22;;;;;;;41.00;27.23;;;7.30;99.90;;;;;;5058317;28;20024;-54
2020/12/13 06:33:48;;;;;;;38.45;25.83;;;7.50;99.90;;;;;;5058016;28;20470;-52
2020/12/13 06:36:14;;;;;;;40.85;26.65;;;7.40;99.90;;;;;;5058224;28;20444;-51
2020/12/13 06:38:40;;;;;;;39.33;24.60;;;7.40;99.90;;;;;;5058112;28;20016;-53
2020/12/13 06:41:12;;;;;;;38.97;24.67;;;7.40;99.90;;;;;;5057374;28;20025;-50
2020/12/13 06:44:03;;;;;;;34.97;23.27;;;7.40;99.90;;;;;;5057864;28;20112;-50
2020/12/13 06:46:29;;;;;;;34.92;22.38;;;7.30;99.90;;;;;;5048398;28;20032;-56
2020/12/13 06:48:57;;;;;;;33.22;23.08;;;7.30;99.90;;;;;;5057611;28;20028;-56
2020/12/13 06:51:36;;;;;;;31.27;22.13;;;7.30;99.90;;;;;;5057537;28;20465;-54
2020/12/13 06:54:06;;;;;;;29.15;21.58;;;7.20;99.90;;;;;;5057705;28;20385;-55
2020/12/13 06:56:33;;;;;;;30.80;21.45;;;7.30;99.90;;;;;;5057561;28;20029;-54
2020/12/13 06:59:02;;;;;;;34.33;22.42;;;7.30;99.90;;;;;;5057857;28;20047;-51
2020/12/13 07:01:32;;;;;;;28.70;21.08;;;7.30;99.90;;;;;;5057602;28;20028;-55
2020/12/13 07:04:18;;;;;;;33.88;21.13;;;7.20;99.90;;;;;;5057863;28;20082;-53
2020/12/13 07:06:44;;;;;;;33.03;21.83;;;7.30;99.90;;;;;;5058120;28;20032;-54
2020/12/13 07:09:13;;;;;;;29.92;20.35;;;7.30;99.90;;;;;;5056956;28;20032;-50
2020/12/13 07:11:43;;;;;;;26.63;19.25;;;7.20;99.90;;;;;;5057159;28;20055;-52
2020/12/13 07:14:13;;;;;;;28.08;18.92;;;7.20;99.90;;;;;;5056407;28;20048;-52
2020/12/13 07:16:42;;;;;;;26.98;17.27;;;7.20;99.90;;;;;;5057393;28;20397;-55
2020/12/13 07:19:13;;;;;;;27.58;20.33;;;7.20;99.90;;;;;;5058469;28;20139;-55
2020/12/13 07:21:41;;;;;;;25.52;18.52;;;7.30;99.90;;;;;;5056760;28;20029;-54
2020/12/13 07:24:08;;;;;;;27.25;19.63;;;7.30;99.90;;;;;;5056383;28;20052;-51
2020/12/13 07:26:35;;;;;;;26.75;17.75;;;7.30;99.90;;;;;;5056971;28;20035;-56
2020/12/13 07:29:03;;;;;;;26.40;18.38;;;7.30;99.90;;;;;;5056551;28;20098;-51
2020/12/13 07:31:35;;;;;;;26.38;19.05;;;7.30;99.90;;;;;;5057030;28;20112;-53
2020/12/13 07:34:05;;;;;;;24.00;18.45;;;7.30;99.90;;;;;;5056927;28;20043;-52
2020/12/13 07:36:32;;;;;;;23.67;17.90;;;7.30;99.90;;;;;;5056350;28;20021;-56
2020/12/13 07:39:00;;;;;;;25.98;20.17;;;7.40;99.90;;;;;;5056055;28;20030;-55
2020/12/13 07:41:26;;;;;;;25.08;18.73;;;7.40;99.90;;;;;;5056766;28;20039;-57
2020/12/13 07:43:58;;;;;;;25.55;17.88;;;7.30;99.90;;;;;;5056543;28;20501;-54
2020/12/13 07:46:25;;;;;;;24.40;19.13;;;7.30;99.90;;;;;;5056072;28;20067;-54
2020/12/13 07:49:20;;;;;;;23.45;17.20;;;7.30;99.90;;;;;;5057367;28;20024;-53
2020/12/13 07:51:51;;;;;;;25.38;18.38;;;7.20;99.90;;;;;;5056297;28;20542;-57
2020/12/13 07:54:30;;;;;;;25.08;17.20;;;7.30;99.90;;;;;;5056846;28;20389;-54
2020/12/13 07:56:58;;;;;;;26.33;18.52;;;7.30;99.90;;;;;;5057157;28;20044;-52
2020/12/13 07:59:26;;;;;;;28.42;17.92;;;7.30;99.90;;;;;;5056979;28;20048;-52
2020/12/13 08:01:53;;;;;;;26.30;18.73;;;7.20;99.90;;;;;;5056292;28;20039;-55
2020/12/13 08:04:39;;;;;;;29.95;19.17;;;7.20;99.90;;;;;;5056091;28;20028;-54
2020/12/13 08:07:11;;;;;;;28.45;20.02;;;7.10;99.90;;;;;;5056529;28;20070;-56
2020/12/13 08:09:40;;;;;;;27.60;19.77;;;7.10;99.90;;;;;;5056217;28;20429;-53
2020/12/13 08:12:06;;;;;;;29.48;20.38;;;7.10;99.90;;;;;;5055279;28;20074;-54
2020/12/13 08:14:32;;;;;;;28.58;19.02;;;7.20;99.90;;;;;;5055411;28;20029;-52
2020/12/13 08:16:58;;;;;;;25.05;18.42;;;7.20;99.90;;;;;;5055922;28;20378;-52
2020/12/13 08:19:42;;;;;;;29.10;18.63;;;7.20;99.90;;;;;;5057055;28;20039;-51
2020/12/13 08:22:15;;;;;;;26.05;17.80;;;7.30;99.90;;;;;;5055593;28;20024;-52
2020/12/13 08:24:42;;;;;;;24.55;16.45;;;7.30;99.90;;;;;;5055297;28;20032;-52
2020/12/13 08:27:11;;;;;;;27.63;19.50;;;7.40;99.90;;;;;;5054882;28;20029;-54
2020/12/13 08:29:37;;;;;;;23.27;16.67;;;7.40;99.90;;;;;;5055897;28;20070;-53
2020/12/13 08:32:14;;;;;;;21.23;15.95;;;7.50;99.90;;;;;;5055652;28;20024;-55
2020/12/13 08:34:40;;;;;;;22.65;15.93;;;7.50;99.90;;;;;;5055990;28;20103;-53
2020/12/13 08:37:06;;;;;;;22.88;14.77;;;7.50;99.90;;;;;;5055637;28;20013;-52
2020/12/13 08:39:36;;;;;;;19.42;14.82;;;7.60;99.90;;;;;;5055879;28;20111;-54
2020/12/13 08:42:05;;;;;;;21.70;15.00;;;7.60;99.90;;;;;;5055334;28;20043;-51
2020/12/13 08:44:36;;;;;;;22.42;16.02;;;7.60;99.90;;;;;;5055096;28;20086;-52
2020/12/13 08:47:07;;;;;;;22.80;16.65;;;7.60;99.90;;;;;;5073229;28;20037;-59
2020/12/13 08:49:35;;;;;;;23.38;16.38;;;7.70;99.90;;;;;;5055940;28;20036;-56
2020/12/13 08:52:21;;;;;;;26.67;17.48;;;7.60;99.90;;;;;;5055670;28;20024;-54
2020/12/13 08:54:49;;;;;;;22.55;16.33;;;7.70;99.90;;;;;;5055076;28;20025;-53
2020/12/13 08:57:34;;;;;;;20.15;13.63;;;7.70;99.90;;;;;;5055792;28;20029;-56
2020/12/13 09:00:10;;;;;;;18.35;13.00;;;7.80;99.90;;;;;;5056934;28;20099;-54
2020/12/13 09:02:35;;;;;;;;;;;7.80;99.90;;;;;;5055865;28;20024;-55
2020/12/13 09:05:01;;;;;;;;;;;7.80;99.90;;;;;;5055278;28;20011;-52
2020/12/13 09:07:33;;;;;;;13.82;10.73;;;7.80;99.90;;;;;;5055183;28;19904;-53
2020/12/13 09:10:14;;;;;;;15.60;10.82;;;7.80;99.90;;;;;;5054833;28;20447;-55
2020/12/13 09:12:41;;;;;;;13.90;10.43;;;7.90;99.90;;;;;;5055599;28;20016;-53
2020/12/13 09:15:17;;;;;;;13.80;9.18;;;8.00;99.90;;;;;;5053913;28;20051;-55
2020/12/13 09:17:56;;;;;;;9.45;8.32;;;8.10;99.90;;;;;;5054426;28;20028;-56
2020/12/13 09:20:29;;;;;;;10.10;8.23;;;8.00;99.90;;;;;;5054666;28;20064;-53
2020/12/13 09:23:06;;;;;;;15.88;8.85;;;8.10;99.90;;;;;;5055278;28;20028;-54
2020/12/13 09:25:43;;;;;;;9.25;7.45;;;8.10;99.90;;;;;;5055682;28;20428;-53
2020/12/13 09:28:10;;;;;;;12.52;8.57;;;8.20;99.90;;;;;;5056898;28;20063;-51
2020/12/13 09:30:36;;;;;;;9.40;7.22;;;8.20;99.90;;;;;;5055938;28;20024;-52
2020/12/13 09:33:02;;;;;;;15.00;7.60;;;8.20;99.90;;;;;;5055401;28;20034;-55
2020/12/13 09:35:33;;;;;;;8.98;7.38;;;8.30;99.90;;;;;;5055579;28;20052;-52
2020/12/13 09:38:00;;;;;;;8.20;7.05;;;8.40;99.90;;;;;;5055057;28;20029;-51
2020/12/13 09:40:27;;;;;;;7.97;6.78;;;8.40;99.90;;;;;;5055851;28;20024;-58
2020/12/13 09:42:54;;;;;;;9.40;6.22;;;8.50;99.90;;;;;;5055752;28;20534;-50
2020/12/13 09:45:20;;;;;;;6.57;5.72;;;8.50;99.90;;;;;;5054355;28;20025;-49
2020/12/13 09:47:46;;;;;;;6.88;5.70;;;8.60;99.90;;;;;;5055492;28;20033;-55
2020/12/13 09:50:12;;;;;;;10.10;5.75;;;8.70;99.90;;;;;;5055837;28;20448;-55
2020/12/13 09:52:38;;;;;;;6.68;5.93;;;8.70;99.90;;;;;;5055041;28;20475;-52
2020/12/13 09:55:03;;;;;;;7.13;6.15;;;8.80;99.90;;;;;;5054449;28;20031;-54
2020/12/13 09:57:29;;;;;;;6.75;5.57;;;8.80;99.90;;;;;;5054812;28;20025;-53
2020/12/13 09:59:54;;;;;;;6.13;5.53;;;8.90;99.90;;;;;;5054540;28;20207;-49
2020/12/13 10:02:20;;;;;;;9.52;6.45;;;8.80;99.90;;;;;;5054438;28;20107;-54
2020/12/13 10:04:46;;;;;;;12.73;6.20;;;8.80;99.90;;;;;;5055105;28;20116;-52
2020/12/13 10:07:29;;;;;;;7.65;6.38;;;8.90;99.90;;;;;;5054112;28;20024;-54
2020/12/13 10:09:54;;;;;;;9.15;6.68;;;8.90;99.90;;;;;;5054554;28;20024;-49
2020/12/13 10:12:22;;;;;;;10.13;6.35;;;8.80;99.90;;;;;;5054179;28;20098;-56
2020/12/13 10:14:47;;;;;;;8.25;5.80;;;8.90;99.90;;;;;;5054050;28;20400;-54
2020/12/13 10:17:13;;;;;;;9.10;6.28;;;8.90;99.90;;;;;;5055460;28;20049;-49
2020/12/13 10:19:39;;;;;;;7.60;5.85;;;8.90;99.90;;;;;;5054297;28;20111;-51
2020/12/13 10:22:04;;;;;;;6.80;5.22;;;9.00;99.90;;;;;;5072035;28;20029;-52
2020/12/13 10:24:30;;;;;;;9.80;5.80;;;8.90;99.90;;;;;;5054584;28;20020;-49
2020/12/13 10:26:56;;;;;;;7.60;5.18;;;9.00;99.90;;;;;;5054087;28;20464;-51
2020/12/13 10:29:21;;;;;;;5.90;5.30;;;9.00;99.90;;;;;;5055058;28;20444;-52
2020/12/13 10:31:47;;;;;;;9.80;5.30;;;9.00;99.90;;;;;;5054922;28;20056;-53
2020/12/13 10:34:16;;;;;;;7.82;4.60;;;9.00;99.90;;;;;;5054488;28;20020;-56
2020/12/13 10:36:43;;;;;;;7.85;5.03;;;9.10;99.90;;;;;;5053946;28;20086;-48
2020/12/13 10:39:09;;;;;;;5.55;5.05;;;9.00;99.90;;;;;;5055423;28;20017;-56
2020/12/13 10:41:36;;;;;;;5.63;5.03;;;9.00;99.90;;;;;;5054307;28;20064;-56
2020/12/13 10:44:02;;;;;;;8.60;5.03;;;9.00;99.90;;;;;;5055378;28;20028;-54
2020/12/13 10:46:27;;;;;;;5.70;4.93;;;9.00;99.90;;;;;;5058182;28;20028;-49
2020/12/13 10:48:53;;;;;;;9.27;4.40;;;9.00;99.90;;;;;;5058967;28;20067;-56
2020/12/13 10:51:19;;;;;;;5.05;4.43;;;9.00;99.90;;;;;;5057621;28;20096;-54
2020/12/13 10:53:47;;;;;;;7.80;4.57;;;9.00;99.90;;;;;;5058592;28;20047;-55
2020/12/13 10:56:13;;;;;;;5.38;4.88;;;9.00;99.90;;;;;;5057892;28;20024;-56
2020/12/13 10:58:43;;;;;;;5.72;4.22;;;9.00;99.90;;;;;;5057656;28;20028;-56
2020/12/13 11:01:09;;;;;;;5.90;4.63;;;9.00;99.90;;;;;;5058335;28;20025;-55
2020/12/13 11:03:35;;;;;;;5.15;4.25;;;9.00;99.90;;;;;;5059395;28;20036;-55
2020/12/13 11:06:01;;;;;;;4.60;4.00;;;9.10;99.90;;;;;;5058477;28;20028;-53
2020/12/13 11:08:27;;;;;;;6.70;4.63;;;9.10;99.90;;;;;;5059172;28;20093;-54
2020/12/13 11:10:52;;;;;;;6.80;4.05;;;9.00;99.90;;;;;;5058811;28;20377;-52
2020/12/13 11:13:18;;;;;;;4.13;3.58;;;9.00;99.90;;;;;;5058009;28;20047;-50
2020/12/13 11:15:45;;;;;;;5.80;4.10;;;9.10;99.90;;;;;;5074975;28;20056;-53
2020/12/13 11:18:11;;;;;;;4.30;3.75;;;9.10;99.90;;;;;;5040660;28;20070;-49
2020/12/13 11:20:37;;;;;;;3.90;3.50;;;9.10;99.90;;;;;;5057095;28;20028;-51
2020/12/13 11:23:03;;;;;;;4.25;3.00;;;9.20;99.90;;;;;;5055860;28;20102;-50
2020/12/13 11:25:28;;;;;;;5.15;3.28;;;9.30;99.80;;;;;;5066588;28;20029;-52
2020/12/13 11:27:54;;;;;;;4.00;3.30;;;9.40;99.70;;;;;;5040018;28;20063;-55
2020/12/13 11:30:20;;;;;;;4.03;3.20;;;9.40;99.50;;;;;;5076934;28;20027;-56
2020/12/13 11:32:45;;;;;;;3.85;3.20;;;9.40;99.50;;;;;;5078117;28;20486;-50
2020/12/13 11:35:13;;;;;;;7.18;3.33;;;9.40;99.30;;;;;;5065014;28;20043;-47
2020/12/13 11:37:39;;;;;;;3.13;2.75;;;9.40;99.40;;;;;;5070179;28;20453;-49
2020/12/13 11:40:06;;;;;;;6.05;2.90;;;9.40;99.70;;;;;;5035735;28;20120;-46
2020/12/13 11:42:31;;;;;;;4.47;2.67;;;9.40;99.20;;;;;;5050545;28;20771;-51
2020/12/13 11:44:58;;;;;;;2.72;2.38;;;9.40;99.20;;;;;;5051371;28;20041;-54
2020/12/13 11:47:24;;;;;;;3.40;2.45;;;9.40;98.60;;;;;;5052488;28;20100;-58
2020/12/13 11:49:50;;;;;;;3.88;3.20;;;9.40;98.40;;;;;;5018299;28;20017;-56
2020/12/13 11:52:15;;;;;;;8.25;4.43;;;9.40;98.40;;;;;;5034165;28;20068;-54
2020/12/13 11:54:41;;;;;;;2.78;2.53;;;9.40;98.40;;;;;;5018333;28;20112;-55
2020/12/13 11:57:06;;;;;;;5.15;3.20;;;9.50;97.80;;;;;;5034423;28;20119;-56
2020/12/13 11:59:32;;;;;;;4.68;3.10;;;9.50;98.00;;;;;;5034352;28;20048;-55
2020/12/13 12:01:57;;;;;;;2.75;2.53;;;9.60;97.60;;;;;;5034186;28;20063;-52
2020/12/13 12:04:23;;;;;;;2.80;2.25;;;9.70;97.50;;;;;;5033856;28;20112;-55
2020/12/13 12:06:49;;;;;;;3.75;2.90;;;9.70;97.60;;;;;;5034101;28;20032;-55
2020/12/13 12:09:15;;;;;;;2.45;2.25;;;9.70;97.90;;;;;;5034342;28;20031;-55
2020/12/13 12:11:41;;;;;;;4.43;2.28;;;9.80;98.10;;;;;;5034884;28;20434;-56
2020/12/13 12:14:11;;;;;;;2.72;2.10;;;10.00;97.20;;;;;;5033949;28;20024;-56
2020/12/13 12:16:39;;;;;;;2.47;2.22;;;10.00;96.70;;;;;;5034369;28;20148;-55
2020/12/13 12:19:05;;;;;;;4.18;2.25;;;10.10;96.90;;;;;;5033955;28;20473;-52
2020/12/13 12:21:31;;;;;;;2.50;1.60;;;10.10;96.60;;;;;;5033903;28;20106;-53
2020/12/13 12:23:57;;;;;;;3.88;1.90;;;10.10;96.70;;;;;;5034316;28;20029;-56
2020/12/13 12:26:29;;;;;;;6.35;3.08;;;10.10;96.80;;;;;;5051582;28;20086;-55
2020/12/13 12:28:54;;;;;;;2.30;1.80;;;10.20;96.50;;;;;;5033875;28;20033;-52
2020/12/13 12:31:20;;;;;;;1.55;1.40;;;10.20;96.10;;;;;;5033968;28;20033;-56
2020/12/13 12:33:46;;;;;;;2.67;1.95;;;10.20;96.40;;;;;;5051666;28;20446;-57
2020/12/13 12:36:20;;;;;;;2.22;1.55;;;10.20;96.50;;;;;;5033780;28;20040;-57
2020/12/13 12:38:46;;;;;;;2.25;1.27;;;10.30;96.90;;;;;;5053749;28;20024;-58
2020/12/13 12:41:17;;;;;;;1.77;1.58;;;10.30;96.70;;;;;;5071565;28;20028;-56
2020/12/13 12:43:43;;;;;;;1.20;1.10;;;10.30;96.10;;;;;;5071270;28;20054;-55
2020/12/13 12:46:10;;;;;;;1.10;1.08;;;10.30;95.90;;;;;;5071305;28;20108;-55
2020/12/13 12:48:36;;;;;;;2.78;1.40;;;10.40;95.30;;;;;;5070787;28;20146;-52
2020/12/13 12:51:03;;;;;;;1.27;1.17;;;10.40;95.90;;;;;;5052293;28;20040;-54